Time;durP1;ratioP1;P1;durP2;ratioP2;P2;SDS_P1;SDS_P2;PMS_P1;PMS_P2;Temp;Humidity;BMP_temperature;BMP_pressure;BME280_temperature;BME280_humidity;BME280_pressure;Samples;Min_cycle;Max_cycle;Signal;HPM_P1;HPM_P2
2022/10/23 00:01:34;;;;;;;8.30;5.33;;;11.90;81.00;;;;;;4952662;28;20138;-81
2022/10/23 00:04:03;;;;;;;9.82;5.78;;;11.90;81.10;;;;;;4952404;28;20300;-80
2022/10/23 00:06:32;;;;;;;8.80;5.72;;;11.90;81.20;;;;;;4954968;28;20047;-80
2022/10/23 00:09:01;;;;;;;9.57;5.40;;;11.90;81.20;;;;;;4954174;28;20051;-81
2022/10/23 00:11:30;;;;;;;10.38;6.30;;;11.90;81.30;;;;;;4971573;28;20158;-81
2022/10/23 00:13:59;;;;;;;10.30;6.20;;;11.90;81.30;;;;;;4955239;28;20054;-80
2022/10/23 00:16:26;;;;;;;9.18;5.85;;;11.90;81.40;;;;;;4971325;28;20373;-80
2022/10/23 00:18:54;;;;;;;9.63;5.85;;;11.90;81.40;;;;;;4966612;28;20165;-81
2022/10/23 00:21:21;;;;;;;9.00;5.63;;;11.90;81.50;;;;;;4955321;28;20588;-81
2022/10/23 00:23:48;;;;;;;7.72;5.28;;;11.90;81.50;;;;;;4939006;28;20429;-80
2022/10/23 00:26:19;;;;;;;8.87;5.53;;;11.90;81.60;;;;;;4950813;28;20058;-80
2022/10/23 00:28:49;;;;;;;8.30;5.50;;;11.90;81.70;;;;;;4951806;28;20630;-80
2022/10/23 00:31:17;;;;;;;7.05;4.80;;;11.90;81.70;;;;;;4952044;28;20055;-80
2022/10/23 00:33:45;;;;;;;8.18;5.40;;;11.90;81.70;;;;;;4954822;28;20506;-80
2022/10/23 00:36:15;;;;;;;10.43;6.25;;;11.90;81.70;;;;;;4954954;28;20078;-81
2022/10/23 00:38:44;;;;;;;12.10;5.93;;;11.90;81.80;;;;;;4955283;28;20055;-80
2022/10/23 00:41:16;;;;;;;9.65;5.68;;;11.90;82.00;;;;;;4954964;28;20298;-80
2022/10/23 00:44:01;;;;;;;9.07;5.72;;;11.90;82.00;;;;;;4955007;28;20106;-80
2022/10/23 00:46:28;;;;;;;9.18;5.10;;;11.90;82.00;;;;;;4970905;28;20513;-80
2022/10/23 00:48:56;;;;;;;7.90;5.25;;;11.90;82.10;;;;;;4954590;28;20960;-80
2022/10/23 00:51:24;;;;;;;10.60;6.17;;;11.90;82.10;;;;;;4954697;28;20053;-80
2022/10/23 00:53:57;;;;;;;7.90;5.10;;;11.90;82.10;;;;;;4954806;28;20313;-80
2022/10/23 00:57:02;;;;;;;11.32;6.65;;;11.90;82.20;;;;;;4954887;28;20592;-80
2022/10/23 00:59:31;;;;;;;13.57;6.72;;;11.90;82.00;;;;;;4938476;28;20058;-80
2022/10/23 01:01:59;;;;;;;9.85;5.80;;;11.90;82.10;;;;;;4955251;28;20058;-80
2022/10/23 01:04:28;;;;;;;10.53;6.10;;;11.90;82.30;;;;;;4970452;28;20058;-80
2022/10/23 01:07:03;;;;;;;11.57;6.72;;;11.90;82.40;;;;;;4970336;28;20311;-80
2022/10/23 01:09:36;;;;;;;10.18;6.68;;;11.90;82.50;;;;;;4954156;28;20125;-80
2022/10/23 01:12:10;;;;;;;11.77;6.95;;;11.90;82.70;;;;;;4938272;28;20858;-80
2022/10/23 01:14:46;;;;;;;10.43;6.20;;;11.90;82.90;;;;;;4938350;28;20051;-80
2022/10/23 01:17:19;;;;;;;8.73;5.97;;;11.90;82.90;;;;;;4937562;28;20047;-80
2022/10/23 01:20:01;;;;;;;10.45;6.22;;;11.90;83.00;;;;;;4970234;28;20263;-81
2022/10/23 01:22:48;;;;;;;9.30;5.63;;;11.90;83.00;;;;;;4970350;28;20051;-81
2022/10/23 01:25:28;;;;;;;9.90;6.00;;;11.90;82.90;;;;;;4954168;28;20054;-80
2022/10/23 01:28:01;;;;;;;11.13;6.82;;;11.90;82.90;;;;;;4958317;28;20047;-80
2022/10/23 01:30:30;;;;;;;11.40;7.30;;;12.00;83.30;;;;;;4953928;28;20527;-80
2022/10/23 01:33:04;;;;;;;13.70;6.80;;;11.90;83.30;;;;;;4938050;28;20311;-80
2022/10/23 01:35:43;;;;;;;10.25;5.88;;;12.00;83.30;;;;;;4936179;28;20526;-80
2022/10/23 01:38:14;;;;;;;10.35;6.30;;;12.00;83.20;;;;;;4938134;28;20110;-80
2022/10/23 01:40:48;;;;;;;10.90;6.65;;;12.00;83.20;;;;;;4954007;28;20055;-81
2022/10/23 01:43:19;;;;;;;10.40;6.50;;;12.00;83.30;;;;;;4971318;28;20126;-80
2022/10/23 01:45:51;;;;;;;11.80;7.32;;;12.00;83.30;;;;;;4964390;28;20764;-80
2022/10/23 01:48:25;;;;;;;10.70;6.55;;;12.00;83.30;;;;;;4938394;28;20134;-81
2022/10/23 01:50:54;;;;;;;9.60;5.82;;;12.00;83.40;;;;;;4937670;28;20090;-80
2022/10/23 01:53:22;;;;;;;10.25;6.90;;;12.00;83.40;;;;;;4949023;28;20059;-81
2022/10/23 01:55:50;;;;;;;11.33;6.60;;;12.00;83.40;;;;;;4934664;28;20056;-80
2022/10/23 01:58:26;;;;;;;8.93;6.20;;;12.00;83.40;;;;;;4934592;28;20280;-80
2022/10/23 02:00:59;;;;;;;8.43;5.90;;;12.00;83.40;;;;;;4957142;28;20166;-80
2022/10/23 02:03:29;;;;;;;9.32;5.57;;;12.00;83.40;;;;;;4969873;28;20063;-81
2022/10/23 02:05:56;;;;;;;8.05;5.22;;;12.00;83.30;;;;;;4937808;28;20055;-80
2022/10/23 02:08:24;;;;;;;8.63;5.17;;;12.00;83.20;;;;;;4937565;28;20051;-80
2022/10/23 02:11:00;;;;;;;7.68;4.97;;;12.00;83.30;;;;;;4932899;28;21055;-80
2022/10/23 02:13:34;;;;;;;8.93;4.50;;;12.00;83.30;;;;;;4950705;28;20099;-80
2022/10/23 02:16:10;;;;;;;9.63;4.68;;;12.10;83.30;;;;;;4934296;28;20047;-80
2022/10/23 02:18:44;;;;;;;6.95;4.15;;;12.00;83.20;;;;;;4940713;28;20126;-81
2022/10/23 02:21:15;;;;;;;5.90;3.83;;;12.00;83.10;;;;;;4956712;28;20059;-81
2022/10/23 02:23:50;;;;;;;6.35;4.20;;;12.00;83.10;;;;;;4957617;28;20287;-80
2022/10/23 02:26:20;;;;;;;7.45;4.47;;;12.00;83.00;;;;;;4955183;28;20062;-81
2022/10/23 02:28:56;;;;;;;6.07;4.00;;;12.00;83.00;;;;;;4956817;28;20055;-80
2022/10/23 02:31:24;;;;;;;7.28;4.40;;;12.00;83.00;;;;;;4940678;28;20105;-80
2022/10/23 02:33:51;;;;;;;7.80;4.60;;;12.00;83.00;;;;;;4956660;28;20051;-81
2022/10/23 02:36:19;;;;;;;9.40;5.05;;;12.00;83.00;;;;;;4953488;28;21262;-80
2022/10/23 02:38:47;;;;;;;8.32;4.80;;;12.00;83.00;;;;;;4953354;28;20051;-80
2022/10/23 02:41:27;;;;;;;8.27;4.32;;;12.00;83.00;;;;;;4937102;28;20087;-80
2022/10/23 02:44:06;;;;;;;8.75;4.55;;;12.00;83.00;;;;;;4956210;28;20560;-81
2022/10/23 02:46:45;;;;;;;7.23;4.83;;;12.00;82.90;;;;;;4939833;28;20059;-81
2022/10/23 02:49:18;;;;;;;7.70;4.78;;;12.00;82.90;;;;;;4937010;28;20275;-80
2022/10/23 02:51:55;;;;;;;10.23;4.63;;;12.00;82.90;;;;;;4937439;28;20361;-80
2022/10/23 02:54:37;;;;;;;7.75;4.25;;;12.00;82.90;;;;;;4937234;28;20055;-81
2022/10/23 02:57:12;;;;;;;7.53;4.25;;;11.90;82.90;;;;;;4937260;28;20522;-80
2022/10/23 02:59:45;;;;;;;6.90;4.10;;;11.90;82.90;;;;;;4936801;28;20052;-81
2022/10/23 03:02:19;;;;;;;9.52;4.60;;;11.90;82.80;;;;;;4951512;28;20346;-80
2022/10/23 03:04:47;;;;;;;6.50;4.05;;;11.90;82.80;;;;;;4940213;28;20057;-80
2022/10/23 03:07:18;;;;;;;8.20;4.53;;;11.90;82.80;;;;;;4955556;28;20190;-81
2022/10/23 03:09:45;;;;;;;7.30;4.57;;;11.90;82.80;;;;;;4958089;28;20059;-81
2022/10/23 03:12:14;;;;;;;8.67;4.80;;;11.90;82.70;;;;;;4940117;28;20051;-80
2022/10/23 03:14:43;;;;;;;8.45;5.40;;;11.90;82.50;;;;;;4940260;28;20291;-80
2022/10/23 03:17:10;;;;;;;10.15;5.18;;;11.80;82.60;;;;;;4956003;28;20122;-80
2022/10/23 03:19:37;;;;;;;8.63;5.25;;;11.80;82.60;;;;;;4938587;28;20090;-80
2022/10/23 03:22:05;;;;;;;8.30;5.35;;;11.70;82.70;;;;;;4956118;28;20181;-80
2022/10/23 03:24:32;;;;;;;9.13;5.70;;;11.70;82.80;;;;;;4956300;28;20134;-80
2022/10/23 03:26:59;;;;;;;11.48;6.30;;;11.70;82.80;;;;;;4955907;28;20358;-80
2022/10/23 03:29:31;;;;;;;11.85;6.47;;;11.70;82.80;;;;;;4955291;28;20051;-80
2022/10/23 03:32:00;;;;;;;10.95;6.82;;;11.70;82.80;;;;;;4955670;28;20501;-81
2022/10/23 03:34:27;;;;;;;11.82;6.68;;;11.70;82.80;;;;;;4971913;28;20059;-81
2022/10/23 03:36:54;;;;;;;12.13;7.00;;;11.70;82.80;;;;;;4954572;28;20057;-81
2022/10/23 03:39:22;;;;;;;11.50;7.53;;;11.70;82.90;;;;;;4955500;28;21426;-81
2022/10/23 03:41:49;;;;;;;12.07;6.70;;;11.70;83.20;;;;;;4973211;28;20055;-81
2022/10/23 03:44:17;;;;;;;12.00;6.72;;;11.70;83.40;;;;;;4955549;28;20536;-80
2022/10/23 03:46:45;;;;;;;12.38;7.30;;;11.70;83.50;;;;;;4939645;28;20047;-80
2022/10/23 03:49:14;;;;;;;10.50;7.23;;;11.70;83.60;;;;;;4955523;28;20063;-81
2022/10/23 03:51:50;;;;;;;11.68;7.15;;;11.70;83.70;;;;;;4939620;28;20306;-80
2022/10/23 03:54:19;;;;;;;11.68;7.40;;;11.70;83.70;;;;;;4953865;28;20106;-80
2022/10/23 03:56:48;;;;;;;11.68;7.45;;;11.60;83.80;;;;;;4955434;28;20067;-80
2022/10/23 03:59:15;;;;;;;11.43;7.13;;;11.70;83.70;;;;;;4955132;28;20142;-80
2022/10/23 04:01:43;;;;;;;13.13;7.70;;;11.70;83.70;;;;;;4955991;28;20059;-81
2022/10/23 04:04:10;;;;;;;12.50;7.30;;;11.70;83.80;;;;;;4939296;28;20343;-81
2022/10/23 04:06:39;;;;;;;12.88;7.40;;;11.70;83.80;;;;;;4938941;28;20047;-81
2022/10/23 04:09:06;;;;;;;13.45;7.40;;;11.70;83.80;;;;;;4955138;28;20130;-81
2022/10/23 04:11:34;;;;;;;14.43;7.97;;;11.70;83.80;;;;;;4954702;28;20079;-81
2022/10/23 04:14:01;;;;;;;13.70;7.90;;;11.70;83.90;;;;;;4954732;28;21119;-81
2022/10/23 04:16:28;;;;;;;12.07;7.20;;;11.70;83.90;;;;;;4937447;28;20276;-81
2022/10/23 04:18:55;;;;;;;12.85;8.05;;;11.70;83.90;;;;;;4922391;28;20100;-81
2022/10/23 04:21:23;;;;;;;12.35;7.20;;;11.70;84.00;;;;;;4955104;28;20067;-81
2022/10/23 04:23:51;;;;;;;13.18;7.53;;;11.70;84.00;;;;;;4955140;28;20053;-81
2022/10/23 04:26:18;;;;;;;11.60;7.23;;;11.70;84.00;;;;;;4954899;28;20107;-81
2022/10/23 04:28:45;;;;;;;12.15;7.07;;;11.70;84.00;;;;;;4950820;28;20379;-81
2022/10/23 04:31:12;;;;;;;12.48;7.38;;;11.70;84.10;;;;;;4935970;28;20138;-81
2022/10/23 04:33:43;;;;;;;10.73;7.13;;;11.70;84.00;;;;;;4951697;28;20056;-81
2022/10/23 04:36:21;;;;;;;12.02;7.22;;;11.70;84.00;;;;;;4938161;28;20842;-81
2022/10/23 04:38:48;;;;;;;11.13;7.50;;;11.70;83.90;;;;;;4954466;28;20146;-81
2022/10/23 04:41:17;;;;;;;12.77;7.45;;;11.70;83.70;;;;;;4954000;28;21154;-81
2022/10/23 04:43:46;;;;;;;13.40;7.55;;;11.70;83.70;;;;;;4953543;28;20632;-81
2022/10/23 04:46:16;;;;;;;10.60;7.40;;;11.70;83.70;;;;;;4938640;28;20202;-80
2022/10/23 04:48:47;;;;;;;13.55;7.57;;;11.70;83.70;;;;;;4938274;28;20166;-80
2022/10/23 04:51:20;;;;;;;12.90;7.77;;;11.70;83.70;;;;;;4954910;28;20078;-80
2022/10/23 04:54:10;;;;;;;12.55;7.63;;;11.70;83.70;;;;;;4935434;28;20809;-81
2022/10/23 04:56:47;;;;;;;17.40;8.57;;;11.70;83.60;;;;;;4935187;28;20819;-81
2022/10/23 04:59:18;;;;;;;12.95;8.10;;;11.70;83.60;;;;;;4923821;28;20087;-82
2022/10/23 05:01:46;;;;;;;10.30;7.32;;;11.70;83.60;;;;;;4934273;28;20576;-80
2022/10/23 05:04:14;;;;;;;12.23;7.40;;;11.70;83.60;;;;;;4935305;28;20043;-81
2022/10/23 05:06:59;;;;;;;10.57;6.85;;;11.70;83.50;;;;;;4950192;28;20253;-80
2022/10/23 05:09:38;;;;;;;13.98;7.65;;;11.70;83.50;;;;;;4941635;28;20448;-81
2022/10/23 05:12:27;;;;;;;11.73;7.50;;;11.70;83.50;;;;;;4938133;28;20154;-81
2022/10/23 05:14:54;;;;;;;13.23;7.65;;;11.60;83.50;;;;;;4938039;28;20577;-81
2022/10/23 05:17:25;;;;;;;14.00;7.00;;;11.60;83.50;;;;;;4938110;28;20051;-80
2022/10/23 05:19:57;;;;;;;15.18;7.32;;;11.50;83.60;;;;;;4949553;28;20307;-81
2022/10/23 05:22:27;;;;;;;12.65;7.07;;;11.50;83.60;;;;;;4934984;28;20058;-81
2022/10/23 05:24:54;;;;;;;12.57;6.95;;;11.50;83.70;;;;;;4950772;28;20103;-80
2022/10/23 05:27:25;;;;;;;11.32;6.97;;;11.50;83.70;;;;;;4935007;28;20056;-80
2022/10/23 05:29:55;;;;;;;10.47;6.43;;;11.50;83.70;;;;;;4970564;28;20048;-80
2022/10/23 05:32:29;;;;;;;13.43;7.30;;;11.40;83.70;;;;;;4954106;28;20266;-81
2022/10/23 05:34:56;;;;;;;10.93;6.72;;;11.40;83.70;;;;;;4970251;28;20083;-81
2022/10/23 05:37:27;;;;;;;13.15;7.07;;;11.40;83.80;;;;;;4952854;28;20051;-80
2022/10/23 05:40:04;;;;;;;12.65;7.25;;;11.40;83.80;;;;;;4953883;28;20506;-80
2022/10/23 05:42:33;;;;;;;12.90;7.30;;;11.40;83.90;;;;;;4937896;28;20043;-80
2022/10/23 05:45:02;;;;;;;11.95;7.10;;;11.30;84.00;;;;;;4953409;28;20653;-81
2022/10/23 05:47:48;;;;;;;12.38;7.40;;;11.30;84.00;;;;;;4953562;28;20599;-80
2022/10/23 05:50:36;;;;;;;12.20;7.38;;;11.30;84.00;;;;;;4949396;28;20114;-80
2022/10/23 05:53:22;;;;;;;12.43;7.60;;;11.30;84.10;;;;;;4955980;28;20422;-81
2022/10/23 05:55:54;;;;;;;13.10;7.30;;;11.30;84.10;;;;;;4956970;28;20051;-81
2022/10/23 05:58:44;;;;;;;12.38;7.10;;;11.30;84.10;;;;;;4956226;28;20286;-80
2022/10/23 06:01:21;;;;;;;16.10;8.05;;;11.40;84.10;;;;;;4957029;28;20062;-81
2022/10/23 06:04:04;;;;;;;11.52;7.03;;;11.40;84.20;;;;;;4956982;28;20051;-80
2022/10/23 06:06:50;;;;;;;13.63;7.93;;;11.40;84.20;;;;;;4956460;28;20062;-81
2022/10/23 06:09:18;;;;;;;11.80;7.60;;;11.40;84.30;;;;;;4940526;28;20047;-80
2022/10/23 06:11:47;;;;;;;13.27;7.30;;;11.40;84.50;;;;;;4970166;28;20275;-80
2022/10/23 06:14:19;;;;;;;12.90;7.30;;;11.40;84.60;;;;;;4940641;28;20047;-81
2022/10/23 06:16:49;;;;;;;15.65;7.72;;;11.30;84.60;;;;;;4940674;28;20055;-80
2022/10/23 06:19:16;;;;;;;14.82;7.35;;;11.30;84.70;;;;;;4940716;28;20428;-80
2022/10/23 06:21:44;;;;;;;13.37;7.33;;;11.30;84.80;;;;;;4940583;28;20059;-81
2022/10/23 06:24:13;;;;;;;11.73;6.80;;;11.30;84.90;;;;;;4956958;28;20339;-80
2022/10/23 06:26:45;;;;;;;13.80;7.53;;;11.30;85.00;;;;;;4939330;28;20087;-81
2022/10/23 06:29:20;;;;;;;12.48;7.03;;;11.30;85.10;;;;;;4937257;28;20876;-81
2022/10/23 06:31:49;;;;;;;16.02;7.10;;;11.30;85.30;;;;;;4937268;28;20052;-81
2022/10/23 06:34:17;;;;;;;15.03;7.30;;;11.30;85.20;;;;;;4921322;28;20052;-80
2022/10/23 06:36:46;;;;;;;12.43;7.35;;;11.30;85.30;;;;;;4938634;28;20328;-81
2022/10/23 06:39:41;;;;;;;12.85;7.60;;;11.40;85.40;;;;;;4939891;28;20055;-80
2022/10/23 06:42:29;;;;;;;12.70;7.25;;;11.40;85.40;;;;;;4973752;28;20051;-81
2022/10/23 06:44:57;;;;;;;13.07;7.30;;;11.30;85.50;;;;;;4955205;28;20066;-81
2022/10/23 06:47:50;;;;;;;14.50;7.03;;;11.40;85.50;;;;;;4943080;28;20178;-81
2022/10/23 06:50:36;;;;;;;13.85;7.35;;;11.40;85.60;;;;;;4967580;28;20266;-81
2022/10/23 06:53:08;;;;;;;14.55;7.57;;;11.40;85.80;;;;;;4939959;28;20055;-80
2022/10/23 06:55:39;;;;;;;13.77;7.30;;;11.40;86.00;;;;;;4971595;28;20162;-80
2022/10/23 06:58:09;;;;;;;13.02;7.07;;;11.30;85.80;;;;;;4939331;28;20138;-80
2022/10/23 07:00:44;;;;;;;15.77;7.77;;;11.40;85.70;;;;;;4939296;28;20152;-80
2022/10/23 07:03:13;;;;;;;14.30;7.70;;;11.40;85.80;;;;;;4951094;28;20307;-79
2022/10/23 07:05:46;;;;;;;12.98;7.28;;;11.40;85.80;;;;;;4938324;28;20055;-80
2022/10/23 07:08:15;;;;;;;14.60;8.00;;;11.40;85.80;;;;;;4931172;28;20052;-80
2022/10/23 07:10:45;;;;;;;14.25;6.70;;;11.40;86.00;;;;;;4941019;28;20051;-80
2022/10/23 07:13:12;;;;;;;13.70;7.37;;;11.50;86.00;;;;;;4921333;28;20095;-78
2022/10/23 07:15:41;;;;;;;12.05;6.65;;;11.50;86.20;;;;;;4950778;28;20253;-78
2022/10/23 07:18:15;;;;;;;12.15;7.00;;;11.50;86.40;;;;;;4951413;28;20043;-80
2022/10/23 07:21:21;;;;;;;12.90;6.50;;;11.50;86.50;;;;;;4877757;29;20096;-80
2022/10/23 07:23:50;;;;;;;14.07;7.35;;;11.50;86.60;;;;;;4878288;29;20057;-79
2022/10/23 07:26:18;;;;;;;14.53;7.67;;;11.50;86.60;;;;;;4906014;28;20510;-78
2022/10/23 07:28:47;;;;;;;14.77;7.20;;;11.50;86.60;;;;;;4953161;28;20733;-79
2022/10/23 07:31:19;;;;;;;11.30;6.60;;;11.50;86.70;;;;;;4954658;28;20075;-79
2022/10/23 07:34:06;;;;;;;12.48;7.00;;;11.50;86.60;;;;;;4972621;28;20058;-79
2022/10/23 07:36:35;;;;;;;10.75;6.78;;;11.50;86.80;;;;;;4947994;28;20047;-79
2022/10/23 07:39:02;;;;;;;11.47;6.50;;;11.50;86.90;;;;;;4935777;28;20549;-79
2022/10/23 07:41:30;;;;;;;12.60;6.55;;;11.60;87.00;;;;;;4942598;28;20259;-80
2022/10/23 07:43:57;;;;;;;12.68;6.90;;;11.60;87.10;;;;;;4939036;28;20147;-80
2022/10/23 07:46:24;;;;;;;10.77;6.22;;;11.60;87.00;;;;;;4954845;28;20106;-80
2022/10/23 07:48:52;;;;;;;13.00;6.68;;;11.60;87.10;;;;;;4971314;28;20055;-80
2022/10/23 07:51:21;;;;;;;12.23;6.50;;;11.70;87.00;;;;;;4954807;28;20055;-80
2022/10/23 07:53:55;;;;;;;12.98;6.55;;;11.70;87.20;;;;;;4949138;28;20323;-82
2022/10/23 07:56:41;;;;;;;12.57;6.20;;;11.70;87.30;;;;;;4948416;28;20142;-81
2022/10/23 07:59:17;;;;;;;9.77;6.00;;;11.70;87.40;;;;;;4943159;28;20052;-80
2022/10/23 08:01:51;;;;;;;12.65;6.13;;;11.70;87.40;;;;;;4947505;28;20059;-79
2022/10/23 08:04:19;;;;;;;11.50;6.33;;;11.70;87.50;;;;;;4944381;28;20055;-79
2022/10/23 08:07:06;;;;;;;10.40;6.25;;;11.80;87.60;;;;;;4955102;28;20259;-80
2022/10/23 08:09:39;;;;;;;10.77;6.18;;;11.80;87.80;;;;;;4968783;28;20051;-80
2022/10/23 08:12:08;;;;;;;10.80;5.97;;;11.90;88.00;;;;;;4936672;28;20059;-80
2022/10/23 08:14:37;;;;;;;11.50;5.95;;;11.90;88.00;;;;;;4934768;28;20062;-81
2022/10/23 08:17:04;;;;;;;9.37;5.67;;;11.90;88.00;;;;;;4953550;28;20059;-80
2022/10/23 08:19:58;;;;;;;10.98;6.13;;;11.90;88.00;;;;;;4968632;23;20255;-81
2022/10/23 08:22:29;;;;;;;10.70;5.70;;;11.90;88.20;;;;;;4971480;28;20065;-81
2022/10/23 08:24:57;;;;;;;10.88;5.97;;;11.90;88.20;;;;;;4958268;28;20059;-81
2022/10/23 08:27:25;;;;;;;11.77;5.95;;;12.00;88.30;;;;;;4956607;28;20051;-80
2022/10/23 08:29:53;;;;;;;11.20;5.77;;;12.00;88.50;;;;;;4973597;28;20066;-82
2022/10/23 08:32:21;;;;;;;10.07;5.93;;;12.00;88.50;;;;;;4972924;28;20271;-81
2022/10/23 08:34:54;;;;;;;10.45;5.57;;;12.10;88.70;;;;;;4957839;28;20091;-81
2022/10/23 08:37:24;;;;;;;10.60;6.10;;;12.10;88.70;;;;;;4957663;28;20051;-81
2022/10/23 08:39:53;;;;;;;11.40;5.82;;;12.10;88.60;;;;;;4959713;28;20051;-83
2022/10/23 08:42:41;;;;;;;10.37;5.73;;;12.20;88.80;;;;;;4974153;28;20043;-82
2022/10/23 08:45:24;;;;;;;10.13;4.82;;;12.20;89.00;;;;;;4954171;28;20776;-82
2022/10/23 08:48:03;;;;;;;12.70;5.47;;;12.20;89.10;;;;;;4972015;28;20846;-83
2022/10/23 08:51:16;;;;;;;13.07;5.38;;;12.30;89.00;;;;;;4972202;28;20065;-81
2022/10/23 08:53:51;;;;;;;10.63;5.35;;;12.30;89.10;;;;;;4988870;28;20054;-83
2022/10/23 08:56:25;;;;;;;10.90;5.13;;;12.40;89.20;;;;;;4870176;28;20161;-82
2022/10/23 08:58:57;;;;;;;10.93;5.20;;;12.50;89.20;;;;;;4989978;28;20259;-81
2022/10/23 09:01:34;;;;;;;11.30;5.25;;;12.50;89.40;;;;;;4957558;28;20047;-82
2022/10/23 09:04:02;;;;;;;12.50;5.97;;;12.50;89.30;;;;;;4973080;28;20094;-81
2022/10/23 09:06:39;;;;;;;8.88;4.65;;;12.50;89.40;;;;;;4973604;28;20043;-80
2022/10/23 09:09:24;;;;;;;11.73;5.50;;;12.50;89.40;;;;;;4973555;28;20572;-80
2022/10/23 09:12:01;;;;;;;10.45;5.35;;;12.60;89.30;;;;;;4973572;28;20397;-81
2022/10/23 09:14:49;;;;;;;12.07;5.38;;;12.70;89.50;;;;;;4954221;28;20094;-82
2022/10/23 09:17:24;;;;;;;9.80;5.78;;;12.70;89.50;;;;;;4954140;28;20059;-82
2022/10/23 09:19:55;;;;;;;9.35;5.03;;;12.80;89.70;;;;;;4972164;28;20165;-81
2022/10/23 09:22:22;;;;;;;11.47;5.43;;;12.80;89.60;;;;;;4989562;28;20050;-80
2022/10/23 09:24:49;;;;;;;8.75;5.18;;;12.90;89.60;;;;;;4973651;28;20389;-83
2022/10/23 09:27:20;;;;;;;12.70;5.93;;;12.90;89.60;;;;;;4972986;28;20061;-80
2022/10/23 09:29:49;;;;;;;10.38;5.00;;;13.00;89.60;;;;;;4973194;28;20433;-84
2022/10/23 09:32:16;;;;;;;10.20;5.25;;;13.00;89.70;;;;;;4987516;28;20130;-80
2022/10/23 09:34:52;;;;;;;14.50;5.27;;;13.10;90.00;;;;;;4988270;28;20070;-81
2022/10/23 09:37:23;;;;;;;7.53;4.68;;;13.10;90.00;;;;;;4971154;28;20286;-81
2022/10/23 09:40:02;;;;;;;10.52;5.07;;;13.10;90.00;;;;;;4990419;28;20054;-79
2022/10/23 09:42:31;;;;;;;8.32;4.80;;;13.20;90.00;;;;;;4973985;28;20048;-80
2022/10/23 09:44:58;;;;;;;9.88;4.50;;;13.30;90.00;;;;;;4989767;28;20133;-80
2022/10/23 09:47:27;;;;;;;11.00;5.00;;;13.30;90.10;;;;;;4957540;28;20051;-79
2022/10/23 09:49:55;;;;;;;9.98;5.03;;;13.30;90.00;;;;;;4956974;28;20302;-79
2022/10/23 09:52:28;;;;;;;8.70;4.78;;;13.30;90.10;;;;;;4991120;28;20805;-78
2022/10/23 09:54:58;;;;;;;11.68;4.70;;;13.40;90.00;;;;;;4989643;28;20061;-80
2022/10/23 09:57:32;;;;;;;10.30;4.80;;;13.50;90.10;;;;;;4989412;28;20110;-79
2022/10/23 10:00:01;;;;;;;11.80;4.73;;;13.50;90.10;;;;;;4973198;28;20077;-80
2022/10/23 10:02:38;;;;;;;9.55;4.65;;;13.50;90.10;;;;;;4990063;28;20259;-80
2022/10/23 10:05:26;;;;;;;10.65;4.78;;;13.60;90.00;;;;;;4992030;28;20047;-80
2022/10/23 10:08:03;;;;;;;9.07;4.70;;;13.60;90.10;;;;;;4988487;28;20051;-80
2022/10/23 10:10:35;;;;;;;9.43;4.60;;;13.70;90.10;;;;;;4988810;28;20058;-80
2022/10/23 10:13:10;;;;;;;9.10;4.80;;;13.70;90.20;;;;;;4971553;28;20049;-79
2022/10/23 10:15:48;;;;;;;9.13;4.40;;;13.80;90.10;;;;;;4988732;28;20263;-79
2022/10/23 10:18:27;;;;;;;8.57;4.75;;;13.90;90.20;;;;;;4969735;28;20074;-80
2022/10/23 10:21:08;;;;;;;8.85;4.20;;;13.90;90.20;;;;;;4987103;28;20576;-80
2022/10/23 10:23:42;;;;;;;7.68;4.50;;;14.00;90.20;;;;;;4971789;28;20078;-80
2022/10/23 10:26:17;;;;;;;7.93;4.27;;;14.00;90.40;;;;;;4975287;28;20505;-80
2022/10/23 10:29:05;;;;;;;9.75;4.07;;;14.10;90.30;;;;;;4970517;28;20282;-80
2022/10/23 10:31:52;;;;;;;8.60;4.63;;;14.10;90.30;;;;;;4969654;28;20055;-82
2022/10/23 10:34:28;;;;;;;7.53;4.05;;;14.20;90.30;;;;;;4971143;28;20047;-80
2022/10/23 10:37:02;;;;;;;9.05;3.95;;;14.30;90.20;;;;;;4988487;28;20081;-79
2022/10/23 10:39:47;;;;;;;9.00;4.00;;;14.30;90.10;;;;;;4973272;28;20543;-79
2022/10/23 10:42:35;;;;;;;11.30;3.95;;;14.40;89.90;;;;;;5040934;22;20230;-80
2022/10/23 10:45:17;;;;;;;7.55;3.40;;;14.40;89.80;;;;;;4954924;28;20051;-79
2022/10/23 10:47:53;;;;;;;8.60;4.20;;;14.40;89.70;;;;;;4955019;28;20071;-80
2022/10/23 10:50:29;;;;;;;8.32;4.10;;;14.50;89.60;;;;;;4936548;28;20055;-80
2022/10/23 10:53:23;;;;;;;8.30;4.03;;;14.50;89.50;;;;;;4953103;28;20125;-81
2022/10/23 10:55:53;;;;;;;9.98;4.00;;;14.60;89.40;;;;;;4952303;28;20260;-81
2022/10/23 10:58:28;;;;;;;11.27;3.80;;;14.60;89.40;;;;;;4941431;28;20534;-81
2022/10/23 11:01:00;;;;;;;8.23;3.00;;;14.60;89.40;;;;;;4953164;28;20054;-81
2022/10/23 11:03:37;;;;;;;7.78;3.80;;;14.70;89.20;;;;;;4957764;28;20056;-80
2022/10/23 11:06:09;;;;;;;9.47;4.10;;;14.70;89.10;;;;;;4953991;28;20161;-79
2022/10/23 11:08:51;;;;;;;6.97;3.63;;;14.70;89.10;;;;;;4953186;28;20260;-79
2022/10/23 11:11:21;;;;;;;8.50;3.50;;;14.80;89.00;;;;;;4953923;28;20082;-79
2022/10/23 11:13:52;;;;;;;9.40;3.90;;;14.80;88.90;;;;;;4953699;28;20154;-79
2022/10/23 11:16:24;;;;;;;6.97;3.47;;;14.80;88.90;;;;;;4950691;28;20055;-80
2022/10/23 11:19:01;;;;;;;9.27;3.60;;;14.80;88.80;;;;;;4968980;28;20079;-80
2022/10/23 11:21:35;;;;;;;10.43;3.67;;;14.80;88.70;;;;;;4946985;28;20275;-80
2022/10/23 11:27:46;;;;;;;7.53;3.30;;;14.90;88.30;;;;;;4972727;28;20062;-80
2022/10/23 11:30:21;;;;;;;7.55;3.22;;;14.90;88.20;;;;;;4973211;28;20150;-80
2022/10/23 11:33:36;;;;;;;7.63;3.40;;;14.90;88.20;;;;;;4973238;28;20059;-80
2022/10/23 11:36:15;;;;;;;6.53;3.30;;;14.90;88.00;;;;;;4904158;29;20325;-82
2022/10/23 11:38:45;;;;;;;9.02;3.67;;;15.00;88.00;;;;;;4938282;28;20058;-80
2022/10/23 11:41:21;;;;;;;7.32;3.20;;;15.00;88.00;;;;;;4971678;28;20134;-80
2022/10/23 11:43:50;;;;;;;6.88;3.20;;;15.00;88.00;;;;;;4955675;28;20063;-80
2022/10/23 11:46:30;;;;;;;9.83;3.47;;;15.00;88.00;;;;;;4955252;28;20047;-80
2022/10/23 11:49:01;;;;;;;8.75;3.45;;;15.00;88.00;;;;;;4972204;28;20708;-80
2022/10/23 11:51:31;;;;;;;7.68;3.28;;;15.00;88.00;;;;;;4972539;28;20522;-81
2022/10/23 11:54:23;;;;;;;7.80;3.40;;;15.00;88.00;;;;;;4972556;28;20169;-81
2022/10/23 11:56:53;;;;;;;6.45;3.22;;;15.00;87.90;;;;;;4954862;28;20059;-78
2022/10/23 11:59:25;;;;;;;6.97;3.27;;;15.00;87.90;;;;;;4953752;28;20055;-78
2022/10/23 12:01:54;;;;;;;8.10;3.10;;;15.00;87.90;;;;;;4955280;28;20742;-82
2022/10/23 12:04:27;;;;;;;8.27;3.35;;;15.10;87.90;;;;;;4971294;28;20130;-81
2022/10/23 12:06:58;;;;;;;5.95;3.00;;;15.10;87.80;;;;;;4955532;28;20089;-83
2022/10/23 12:09:31;;;;;;;7.00;3.00;;;15.10;87.80;;;;;;4979733;28;20129;-83
2022/10/23 12:12:13;;;;;;;5.63;2.93;;;15.10;87.70;;;;;;4955181;28;20047;-81
2022/10/23 12:14:43;;;;;;;6.72;3.50;;;15.20;87.70;;;;;;4955283;28;20279;-81
2022/10/23 12:17:30;;;;;;;7.53;3.15;;;15.20;87.60;;;;;;4954004;28;20580;-78
2022/10/23 12:20:19;;;;;;;7.82;3.60;;;15.20;87.50;;;;;;4970410;28;20055;-82
2022/10/23 12:22:54;;;;;;;7.50;3.55;;;15.20;87.50;;;;;;4954459;28;20047;-82
2022/10/23 12:25:28;;;;;;;7.77;3.30;;;15.20;87.50;;;;;;4953100;28;20150;-82
2022/10/23 12:28:04;;;;;;;6.82;3.20;;;15.20;87.50;;;;;;4965443;28;20265;-82
2022/10/23 12:30:41;;;;;;;7.75;2.78;;;15.30;87.50;;;;;;4953419;28;20095;-82
2022/10/23 12:33:21;;;;;;;6.13;2.80;;;15.30;87.40;;;;;;4952955;28;20110;-81
2022/10/23 12:36:34;;;;;;;5.57;3.00;;;15.30;87.30;;;;;;4968559;28;20062;-81
2022/10/23 12:39:01;;;;;;;5.43;2.93;;;15.30;87.20;;;;;;4936701;28;20062;-81
2022/10/23 12:41:31;;;;;;;5.85;2.70;;;15.30;87.20;;;;;;4976058;28;20314;-82
2022/10/23 12:44:00;;;;;;;5.22;2.60;;;15.40;87.20;;;;;;4963825;28;20059;-81
2022/10/23 12:46:34;;;;;;;6.53;2.90;;;15.40;87.20;;;;;;4970128;28;20051;-81
2022/10/23 12:49:03;;;;;;;7.50;2.83;;;15.40;87.10;;;;;;4954411;28;20054;-81
2022/10/23 12:51:33;;;;;;;6.37;2.80;;;15.40;87.00;;;;;;4970976;28;20055;-81
2022/10/23 12:54:00;;;;;;;7.50;2.60;;;15.40;87.00;;;;;;4954579;28;20692;-81
2022/10/23 12:56:34;;;;;;;5.75;2.70;;;15.40;86.90;;;;;;4970457;28;20154;-81
2022/10/23 12:59:01;;;;;;;7.93;2.20;;;15.40;86.90;;;;;;4938088;28;20062;-81
2022/10/23 13:01:30;;;;;;;7.55;2.90;;;15.40;86.90;;;;;;4953807;28;20583;-80
2022/10/23 13:04:05;;;;;;;7.40;2.60;;;15.50;86.90;;;;;;4970604;28;20044;-81
2022/10/23 13:06:34;;;;;;;5.18;2.30;;;15.50;86.80;;;;;;4954610;28;21144;-81
2022/10/23 13:09:01;;;;;;;6.57;3.00;;;15.50;86.80;;;;;;4953045;28;20138;-81
2022/10/23 13:11:42;;;;;;;7.00;2.63;;;15.50;86.70;;;;;;4954325;28;20062;-81
2022/10/23 13:14:13;;;;;;;6.00;2.38;;;15.50;86.60;;;;;;4954603;28;20059;-81
2022/10/23 13:16:40;;;;;;;6.07;2.23;;;15.50;86.60;;;;;;4954377;28;20055;-81